Time;durP1;ratioP1;P1;durP2;ratioP2;P2;SDS_P1;SDS_P2;PMS_P1;PMS_P2;Temp;Humidity;BMP_temperature;BMP_pressure;BME280_temperature;BME280_humidity;BME280_pressure;Samples;Min_cycle;Max_cycle;Signal;HPM_P1;HPM_P2
2021/08/18 00:02:09;;;;;;;53.42;38.17;;;;;;;;;;6060422;23;20030;-75
2021/08/18 00:04:38;;;;;;;50.08;37.80;;;;;;;;;;6049777;23;20041;-72
2021/08/18 00:07:05;;;;;;;51.17;38.33;;;;;;;;;;6054961;23;20038;-77
2021/08/18 00:09:32;;;;;;;53.85;36.70;;;;;;;;;;6045810;23;20020;-74
2021/08/18 00:12:06;;;;;;;60.28;42.03;;;;;;;;;;6054605;23;20321;-73
2021/08/18 00:14:34;;;;;;;56.10;39.83;;;;;;;;;;6044006;23;20043;-75
2021/08/18 00:17:02;;;;;;;57.05;41.33;;;;;;;;;;6053954;23;20018;-73
2021/08/18 00:19:30;;;;;;;61.83;42.55;;;;;;;;;;6028628;23;20061;-74
2021/08/18 00:21:57;;;;;;;65.78;47.83;;;;;;;;;;6050101;23;20077;-72
2021/08/18 00:24:25;;;;;;;64.97;49.13;;;;;;;;;;6053740;23;20018;-74
2021/08/18 00:26:57;;;;;;;75.90;53.10;;;;;;;;;;6055363;23;20081;-72
2021/08/18 00:29:24;;;;;;;94.05;68.43;;;;;;;;;;6053547;23;20014;-72
2021/08/18 00:31:51;;;;;;;98.10;76.07;;;;;;;;;;6044454;23;20371;-71
2021/08/18 00:34:18;;;;;;;92.65;68.88;;;;;;;;;;6037884;23;20018;-71
2021/08/18 00:36:45;;;;;;;85.20;64.43;;;;;;;;;;6063844;23;20466;-72
2021/08/18 00:39:13;;;;;;;85.07;60.75;;;;;;;;;;6051899;23;20013;-72
2021/08/18 00:41:40;;;;;;;80.05;59.97;;;;;;;;;;6055526;23;20459;-71
2021/08/18 00:44:08;;;;;;;70.78;53.47;;;;;;;;;;6062444;23;20010;-71
2021/08/18 00:46:53;;;;;;;72.97;52.03;;;;;;;;;;6019730;23;20011;-80
2021/08/18 00:49:22;;;;;;;62.38;44.40;;;;;;;;;;6043776;23;20066;-72
2021/08/18 00:51:49;;;;;;;;;;;;;;;;;;6076988;23;20352;-72
2021/08/18 00:54:18;;;;;;;47.10;33.28;;;;;;;;;;6046784;23;20319;-77
2021/08/18 00:56:46;;;;;;;50.47;33.25;;;;;;;;;;6051473;23;20023;-71
2021/08/18 00:59:14;;;;;;;51.25;34.28;;;;;;;;;;6057826;23;20019;-72
2021/08/18 01:01:42;;;;;;;46.88;34.35;;;;;;;;;;6055005;23;20047;-74
2021/08/18 01:04:10;;;;;;;46.70;33.33;;;;;;;;;;6023293;23;20015;-80
2021/08/18 01:06:40;;;;;;;44.72;32.83;;;;;;;;;;6039700;23;20077;-71
2021/08/18 01:09:15;;;;;;;48.47;33.92;;;;;;;;;;6068842;23;20011;-72
2021/08/18 01:11:44;;;;;;;44.05;32.75;;;;;;;;;;6021754;23;20014;-81
2021/08/18 01:14:12;;;;;;;49.97;34.90;;;;;;;;;;6061720;23;20022;-73
2021/08/18 01:16:47;;;;;;;51.35;33.80;;;;;;;;;;6037456;23;20016;-71
2021/08/18 01:19:18;;;;;;;48.50;33.10;;;;;;;;;;5997654;23;20050;-71
2021/08/18 01:21:50;;;;;;;44.72;32.17;;;;;;;;;;6039343;23;20094;-71
2021/08/18 01:24:19;;;;;;;46.78;35.13;;;;;;;;;;6055036;23;20511;-77
2021/08/18 01:26:47;;;;;;;47.20;34.28;;;;;;;;;;6056619;23;20404;-76
2021/08/18 01:29:15;;;;;;;45.92;32.08;;;;;;;;;;6045022;23;20022;-74
2021/08/18 01:31:42;;;;;;;47.08;31.17;;;;;;;;;;6057482;23;20019;-76
2021/08/18 01:34:10;;;;;;;44.78;31.98;;;;;;;;;;6037482;23;20015;-70
2021/08/18 01:36:39;;;;;;;52.85;33.53;;;;;;;;;;6057303;23;20022;-71
2021/08/18 01:39:08;;;;;;;47.30;32.38;;;;;;;;;;6056881;23;20019;-71
2021/08/18 01:41:36;;;;;;;46.05;32.33;;;;;;;;;;6052245;23;20073;-80
2021/08/18 01:44:04;;;;;;;49.90;32.30;;;;;;;;;;6050746;23;20098;-72
2021/08/18 01:46:33;;;;;;;52.35;32.97;;;;;;;;;;6052341;23;20018;-71
2021/08/18 01:49:01;;;;;;;46.25;31.88;;;;;;;;;;6057405;23;20039;-80
2021/08/18 01:51:28;;;;;;;48.58;34.22;;;;;;;;;;6007248;23;20348;-71
2021/08/18 01:53:55;;;;;;;47.00;33.22;;;;;;;;;;6048492;23;20040;-72
2021/08/18 01:56:22;;;;;;;51.05;35.45;;;;;;;;;;6069504;23;20021;-74
2021/08/18 01:58:49;;;;;;;58.00;37.50;;;;;;;;;;6061153;23;20085;-72
2021/08/18 02:01:18;;;;;;;47.88;34.40;;;;;;;;;;6042562;23;20090;-72
2021/08/18 02:03:45;;;;;;;51.63;34.58;;;;;;;;;;6049638;23;20020;-72
2021/08/18 02:06:15;;;;;;;51.75;35.72;;;;;;;;;;6056750;23;20050;-71
2021/08/18 02:08:42;;;;;;;50.10;35.55;;;;;;;;;;6031540;23;20010;-72
2021/08/18 02:11:12;;;;;;;47.95;33.95;;;;;;;;;;6052255;23;20022;-71
2021/08/18 02:13:41;;;;;;;50.03;32.67;;;;;;;;;;6048210;23;20045;-71
2021/08/18 02:16:08;;;;;;;50.50;33.60;;;;;;;;;;6054215;23;20023;-80
2021/08/18 02:18:38;;;;;;;49.72;34.67;;;;;;;;;;6055873;23;20023;-72
2021/08/18 02:21:05;;;;;;;49.85;34.47;;;;;;;;;;6031089;23;20433;-71
2021/08/18 02:23:32;;;;;;;48.88;36.63;;;;;;;;;;6029638;23;20338;-71
2021/08/18 02:26:00;;;;;;;50.78;34.13;;;;;;;;;;6054935;23;20396;-71
2021/08/18 02:28:27;;;;;;;44.15;32.30;;;;;;;;;;6015750;23;20011;-74
2021/08/18 02:30:54;;;;;;;54.40;35.95;;;;;;;;;;6018756;23;20085;-69
2021/08/18 02:33:24;;;;;;;56.83;38.42;;;;;;;;;;6040873;23;20380;-73
2021/08/18 02:35:53;;;;;;;50.45;34.88;;;;;;;;;;6064174;23;20065;-78
2021/08/18 02:38:20;;;;;;;53.75;36.55;;;;;;;;;;6058320;23;20021;-72
2021/08/18 02:40:47;;;;;;;53.15;34.90;;;;;;;;;;6041550;23;20084;-72
2021/08/18 02:43:14;;;;;;;50.63;34.17;;;;;;;;;;6056416;23;20458;-70
2021/08/18 02:45:41;;;;;;;56.45;35.95;;;;;;;;;;6031202;23;20459;-77
2021/08/18 02:48:08;;;;;;;54.85;34.47;;;;;;;;;;6053586;23;20023;-70
2021/08/18 02:50:36;;;;;;;51.45;34.45;;;;;;;;;;6056204;23;20098;-71
2021/08/18 02:53:04;;;;;;;57.47;33.33;;;;;;;;;;6055057;23;20018;-73
2021/08/18 02:55:31;;;;;;;60.92;38.63;;;;;;;;;;6055980;23;20497;-73
2021/08/18 02:57:58;;;;;;;66.10;41.30;;;;;;;;;;6048924;23;20041;-71
2021/08/18 03:00:26;;;;;;;66.45;40.83;;;;;;;;;;6056437;23;20059;-72
2021/08/18 03:02:55;;;;;;;66.55;42.15;;;;;;;;;;6038583;23;20074;-71
2021/08/18 03:05:22;;;;;;;69.65;41.72;;;;;;;;;;6034783;23;20019;-71
2021/08/18 03:07:49;;;;;;;68.32;40.90;;;;;;;;;;6042795;23;20015;-71
2021/08/18 03:10:16;;;;;;;72.07;41.65;;;;;;;;;;6043770;23;20046;-71
2021/08/18 03:12:43;;;;;;;63.22;40.35;;;;;;;;;;6006673;23;20086;-71
2021/08/18 03:15:11;;;;;;;63.28;41.00;;;;;;;;;;6044583;23;20029;-71
2021/08/18 03:17:38;;;;;;;66.53;38.05;;;;;;;;;;6041363;23;20022;-73
2021/08/18 03:20:08;;;;;;;65.40;38.80;;;;;;;;;;6029850;23;20121;-71
2021/08/18 03:22:35;;;;;;;59.75;38.10;;;;;;;;;;6053074;23;20062;-73
2021/08/18 03:25:04;;;;;;;61.25;39.35;;;;;;;;;;6032990;23;20081;-70
2021/08/18 03:27:31;;;;;;;61.15;40.17;;;;;;;;;;6033347;23;20018;-70
2021/08/18 03:29:58;;;;;;;60.03;38.40;;;;;;;;;;6015023;23;20022;-71
2021/08/18 03:32:25;;;;;;;71.00;41.50;;;;;;;;;;6029000;23;20021;-71
2021/08/18 03:34:53;;;;;;;67.53;41.75;;;;;;;;;;6045549;23;20018;-79
2021/08/18 03:37:20;;;;;;;63.40;40.65;;;;;;;;;;6068616;23;20015;-70
2021/08/18 03:39:47;;;;;;;64.53;38.70;;;;;;;;;;6051932;23;20015;-71
2021/08/18 03:42:15;;;;;;;60.88;38.00;;;;;;;;;;6010060;23;20025;-77
2021/08/18 03:44:42;;;;;;;60.70;38.33;;;;;;;;;;6045898;23;20014;-77
2021/08/18 03:47:09;;;;;;;54.40;37.00;;;;;;;;;;6023850;23;20093;-71
2021/08/18 03:49:36;;;;;;;54.25;36.92;;;;;;;;;;6056050;23;20015;-70
2021/08/18 03:52:08;;;;;;;52.33;34.58;;;;;;;;;;6021734;23;20074;-70
2021/08/18 03:54:35;;;;;;;51.38;32.80;;;;;;;;;;6056449;23;21061;-70
2021/08/18 03:57:04;;;;;;;50.45;32.42;;;;;;;;;;6058934;23;20100;-71
2021/08/18 03:59:32;;;;;;;44.83;29.90;;;;;;;;;;6054794;23;20026;-70
2021/08/18 04:01:59;;;;;;;48.47;32.55;;;;;;;;;;6020899;23;20355;-71
2021/08/18 04:04:26;;;;;;;45.72;30.83;;;;;;;;;;6044539;23;20020;-72
2021/08/18 04:06:54;;;;;;;41.92;30.45;;;;;;;;;;6036121;23;20026;-71
2021/08/18 04:09:22;;;;;;;50.78;30.48;;;;;;;;;;6076014;23;20098;-69
2021/08/18 04:11:49;;;;;;;45.88;32.67;;;;;;;;;;6054729;23;20027;-70
2021/08/18 04:14:16;;;;;;;42.08;31.83;;;;;;;;;;6045048;23;20105;-71
2021/08/18 04:16:43;;;;;;;48.22;30.73;;;;;;;;;;6053158;23;20042;-70
2021/08/18 04:19:14;;;;;;;47.30;31.30;;;;;;;;;;6057742;23;20015;-70
2021/08/18 04:21:41;;;;;;;46.97;31.73;;;;;;;;;;6062269;23;20067;-71
2021/08/18 04:24:08;;;;;;;46.40;30.13;;;;;;;;;;6053635;23;20023;-78
2021/08/18 04:26:35;;;;;;;42.42;30.45;;;;;;;;;;6054257;23;20011;-70
2021/08/18 04:29:02;;;;;;;47.70;31.48;;;;;;;;;;6027995;23;20019;-70
2021/08/18 04:31:30;;;;;;;46.10;30.38;;;;;;;;;;6055599;23;20035;-74
2021/08/18 04:33:57;;;;;;;45.15;31.08;;;;;;;;;;6055483;23;20062;-71
2021/08/18 04:36:24;;;;;;;49.08;30.25;;;;;;;;;;6050016;23;20086;-71
2021/08/18 04:38:51;;;;;;;42.00;28.63;;;;;;;;;;6034216;23;20011;-78
2021/08/18 04:41:18;;;;;;;45.78;30.17;;;;;;;;;;6033531;23;20027;-71
2021/08/18 04:43:45;;;;;;;45.63;30.95;;;;;;;;;;6052328;23;20014;-70
2021/08/18 04:46:13;;;;;;;45.75;30.00;;;;;;;;;;6032609;23;20058;-78
2021/08/18 04:48:40;;;;;;;;;;;;;;;;;;6056618;23;20459;-77
2021/08/18 04:51:07;;;;;;;43.85;30.40;;;;;;;;;;6038793;23;19964;-70
2021/08/18 04:53:35;;;;;;;42.10;29.75;;;;;;;;;;6021685;23;20058;-72
2021/08/18 04:56:03;;;;;;;46.28;31.17;;;;;;;;;;6058234;23;20066;-71
2021/08/18 04:58:30;;;;;;;45.15;28.70;;;;;;;;;;6056119;23;20241;-74
2021/08/18 05:00:57;;;;;;;39.88;29.48;;;;;;;;;;6046737;23;20454;-70
2021/08/18 05:03:24;;;;;;;40.50;29.02;;;;;;;;;;6055283;23;20015;-70
2021/08/18 05:05:51;;;;;;;39.92;30.75;;;;;;;;;;6055016;23;20388;-72
2021/08/18 05:08:18;;;;;;;42.30;28.70;;;;;;;;;;6055403;23;20033;-71
2021/08/18 05:10:45;;;;;;;40.35;28.60;;;;;;;;;;6057551;23;20467;-70
2021/08/18 05:13:13;;;;;;;39.25;28.10;;;;;;;;;;6020294;23;20026;-71
2021/08/18 05:15:40;;;;;;;36.75;27.38;;;;;;;;;;6036224;23;20022;-70
2021/08/18 05:18:07;;;;;;;42.35;29.65;;;;;;;;;;6049837;23;20015;-70
2021/08/18 05:20:34;;;;;;;40.72;29.38;;;;;;;;;;6056071;23;20022;-71
2021/08/18 05:23:01;;;;;;;40.45;29.50;;;;;;;;;;6057461;23;20026;-77
2021/08/18 05:25:31;;;;;;;37.00;27.92;;;;;;;;;;6057831;23;20094;-70
2021/08/18 05:28:03;;;;;;;38.50;27.17;;;;;;;;;;6055774;23;20070;-76
2021/08/18 05:30:31;;;;;;;43.40;27.83;;;;;;;;;;6047675;23;20028;-70
2021/08/18 05:32:58;;;;;;;38.65;27.42;;;;;;;;;;6057491;23;20057;-70
2021/08/18 05:35:25;;;;;;;44.95;29.15;;;;;;;;;;6058039;23;20075;-70
2021/08/18 05:37:52;;;;;;;38.60;26.73;;;;;;;;;;6047604;23;20037;-73
2021/08/18 05:40:19;;;;;;;40.38;27.65;;;;;;;;;;6046999;23;20015;-70
2021/08/18 05:42:46;;;;;;;40.10;27.08;;;;;;;;;;6048137;23;20025;-70
2021/08/18 05:45:13;;;;;;;38.38;26.88;;;;;;;;;;6045733;23;20452;-71
2021/08/18 05:47:41;;;;;;;37.67;26.80;;;;;;;;;;6045816;23;20010;-70
2021/08/18 05:50:10;;;;;;;40.70;26.65;;;;;;;;;;6061469;23;20102;-74
2021/08/18 05:52:38;;;;;;;35.42;27.42;;;;;;;;;;6055385;23;21057;-70
2021/08/18 05:55:07;;;;;;;36.80;26.77;;;;;;;;;;6028640;23;20017;-70
2021/08/18 05:57:35;;;;;;;37.05;26.17;;;;;;;;;;6036837;23;20439;-77
2021/08/18 06:00:06;;;;;;;38.85;27.15;;;;;;;;;;6055491;23;20460;-70
2021/08/18 06:02:33;;;;;;;34.60;26.17;;;;;;;;;;6024826;23;20018;-70
2021/08/18 06:05:00;;;;;;;36.17;26.50;;;;;;;;;;6054754;23;20444;-73
2021/08/18 06:07:28;;;;;;;39.67;26.40;;;;;;;;;;6057824;23;20011;-70
2021/08/18 06:09:55;;;;;;;;;;;;;;;;;;6055282;23;20463;-70
2021/08/18 06:12:22;;;;;;;38.78;26.85;;;;;;;;;;6054948;23;20385;-73
2021/08/18 06:14:49;;;;;;;36.47;26.17;;;;;;;;;;6051275;23;20022;-70
2021/08/18 06:17:19;;;;;;;35.00;25.38;;;;;;;;;;6045334;23;20035;-70
2021/08/18 06:19:46;;;;;;;39.05;26.83;;;;;;;;;;6055052;23;20026;-70
2021/08/18 06:22:13;;;;;;;38.70;27.15;;;;;;;;;;6050943;23;20015;-70
2021/08/18 06:24:41;;;;;;;37.42;27.33;;;;;;;;;;6049458;23;20015;-71
2021/08/18 06:27:10;;;;;;;36.05;27.33;;;;;;;;;;6048648;23;20033;-73
2021/08/18 06:29:38;;;;;;;36.58;26.45;;;;;;;;;;6056431;23;20464;-69
2021/08/18 06:32:06;;;;;;;39.83;28.08;;;;;;;;;;6057456;23;20015;-70
2021/08/18 06:34:33;;;;;;;41.72;27.58;;;;;;;;;;6056670;23;20011;-72
2021/08/18 06:37:03;;;;;;;39.60;28.13;;;;;;;;;;6065122;23;20025;-70
2021/08/18 06:39:31;;;;;;;44.08;31.25;;;;;;;;;;6056699;23;20018;-71
2021/08/18 06:41:59;;;;;;;55.38;36.88;;;;;;;;;;6056390;23;20035;-70
2021/08/18 06:44:27;;;;;;;68.68;43.88;;;;;;;;;;6053484;23;20011;-72
2021/08/18 06:46:56;;;;;;;72.13;47.35;;;;;;;;;;6047403;23;20022;-77
2021/08/18 06:49:23;;;;;;;77.25;50.47;;;;;;;;;;6064509;23;20122;-77
2021/08/18 06:51:50;;;;;;;75.72;50.38;;;;;;;;;;6021605;23;20018;-70
2021/08/18 06:54:17;;;;;;;78.20;49.80;;;;;;;;;;6032801;23;20431;-71
2021/08/18 06:56:44;;;;;;;73.13;49.58;;;;;;;;;;6065143;23;20026;-74
2021/08/18 06:59:11;;;;;;;76.35;48.13;;;;;;;;;;6044502;23;20067;-70
2021/08/18 07:01:38;;;;;;;72.50;46.20;;;;;;;;;;6044438;23;20025;-70
2021/08/18 07:04:06;;;;;;;66.65;43.40;;;;;;;;;;6062675;23;20015;-72
2021/08/18 07:06:35;;;;;;;65.32;44.25;;;;;;;;;;6065036;23;20575;-77
2021/08/18 07:09:01;;;;;;;;;;;;;;;;;;6049096;23;20015;-77
2021/08/18 07:11:30;;;;;;;;;;;;;;;;;;6052630;23;19937;-70
2021/08/18 07:13:59;;;;;;;56.78;39.20;;;;;;;;;;6042062;23;19914;-70
2021/08/18 07:16:28;;;;;;;62.42;39.72;;;;;;;;;;6054095;23;20082;-79
2021/08/18 07:18:56;;;;;;;60.85;40.92;;;;;;;;;;6054071;23;20035;-69
2021/08/18 07:21:24;;;;;;;64.03;40.08;;;;;;;;;;6050524;23;20015;-70
2021/08/18 07:23:53;;;;;;;65.03;40.85;;;;;;;;;;6055684;23;20076;-70
2021/08/18 07:26:22;;;;;;;63.75;39.35;;;;;;;;;;6056871;23;20023;-69
2021/08/18 07:28:49;;;;;;;62.95;37.17;;;;;;;;;;6056578;23;20019;-77
2021/08/18 07:31:19;;;;;;;52.83;32.03;;;;;;;;;;6026947;23;20023;-71
2021/08/18 07:33:46;;;;;;;54.30;30.50;;;;;;;;;;6054399;23;20011;-76
2021/08/18 07:36:13;;;;;;;51.83;30.23;;;;;;;;;;6055714;23;20155;-69
2021/08/18 07:38:40;;;;;;;52.70;31.42;;;;;;;;;;6038567;23;20020;-70
2021/08/18 07:41:07;;;;;;;50.47;30.75;;;;;;;;;;6022222;23;20110;-76
2021/08/18 07:43:34;;;;;;;58.97;33.63;;;;;;;;;;6055793;23;20011;-70
2021/08/18 07:46:01;;;;;;;57.25;33.17;;;;;;;;;;6055089;23;20018;-70
2021/08/18 07:48:29;;;;;;;53.92;33.05;;;;;;;;;;6044565;23;20021;-72
2021/08/18 07:50:57;;;;;;;54.63;33.10;;;;;;;;;;6057914;23;20068;-75
2021/08/18 07:53:24;;;;;;;59.30;33.10;;;;;;;;;;6062067;23;20464;-69
2021/08/18 07:55:51;;;;;;;53.65;32.88;;;;;;;;;;6054347;23;20019;-70
2021/08/18 07:58:18;;;;;;;52.15;32.50;;;;;;;;;;6053489;23;20434;-71
2021/08/18 08:00:46;;;;;;;47.88;29.65;;;;;;;;;;6054297;23;20015;-77
2021/08/18 08:03:13;;;;;;;42.85;28.33;;;;;;;;;;6040725;23;20072;-69
2021/08/18 08:05:40;;;;;;;44.40;27.70;;;;;;;;;;6072379;23;20022;-70
2021/08/18 08:08:11;;;;;;;37.70;22.33;;;;;;;;;;6061036;23;20019;-75
2021/08/18 08:10:38;;;;;;;34.85;22.20;;;;;;;;;;6056098;23;20015;-70
2021/08/18 08:13:07;;;;;;;38.67;24.35;;;;;;;;;;6050733;23;20024;-70
2021/08/18 08:15:34;;;;;;;38.88;25.02;;;;;;;;;;6063328;23;20014;-69
2021/08/18 08:18:01;;;;;;;42.05;26.52;;;;;;;;;;6068735;23;20351;-70
2021/08/18 08:20:28;;;;;;;41.22;26.55;;;;;;;;;;6055539;23;20427;-68
2021/08/18 08:23:01;;;;;;;36.88;25.33;;;;;;;;;;6046597;23;20073;-70
2021/08/18 08:25:28;;;;;;;39.83;27.25;;;;;;;;;;6070884;23;20015;-70
2021/08/18 08:27:55;;;;;;;44.00;29.17;;;;;;;;;;6053383;23;20444;-71
2021/08/18 08:30:25;;;;;;;48.60;31.58;;;;;;;;;;6045621;23;20105;-78
2021/08/18 08:32:52;;;;;;;49.53;33.63;;;;;;;;;;6054243;23;20343;-69
2021/08/18 08:35:19;;;;;;;50.17;32.83;;;;;;;;;;6056462;23;20734;-69
2021/08/18 08:37:46;;;;;;;47.63;30.15;;;;;;;;;;6064662;23;20042;-69
2021/08/18 08:40:13;;;;;;;46.67;29.80;;;;;;;;;;6046196;23;20432;-69
2021/08/18 08:42:41;;;;;;;40.65;27.17;;;;;;;;;;6050585;23;20443;-75
2021/08/18 08:45:11;;;;;;;42.25;27.45;;;;;;;;;;6051360;23;20011;-68
2021/08/18 08:47:39;;;;;;;47.55;28.02;;;;;;;;;;6057306;23;20026;-70
2021/08/18 08:50:09;;;;;;;44.35;28.45;;;;;;;;;;6056749;23;20340;-72
2021/08/18 08:52:37;;;;;;;43.08;27.48;;;;;;;;;;6050868;23;20011;-69
2021/08/18 08:55:06;;;;;;;46.80;29.77;;;;;;;;;;6050003;23;20089;-70
2021/08/18 08:57:48;;;;;;;46.63;29.08;;;;;;;;;;6056423;23;20014;-69
2021/08/18 09:00:15;;;;;;;45.20;28.52;;;;;;;;;;6056988;23;20871;-69
2021/08/18 09:02:43;;;;;;;44.90;30.58;;;;;;;;;;6055402;23;20011;-70
2021/08/18 09:05:10;;;;;;;50.50;28.80;;;;;;;;;;6058656;23;20019;-70
2021/08/18 09:07:37;;;;;;;46.38;30.67;;;;;;;;;;6053806;23;20018;-69
2021/08/18 09:10:06;;;;;;;44.00;29.27;;;;;;;;;;6068501;23;20010;-69
2021/08/18 09:12:37;;;;;;;45.15;30.88;;;;;;;;;;6047176;23;20018;-74
2021/08/18 09:15:25;;;;;;;49.33;29.67;;;;;;;;;;6031517;23;20022;-72
2021/08/18 09:17:54;;;;;;;47.75;31.98;;;;;;;;;;6051784;23;20330;-74
2021/08/18 09:20:30;;;;;;;46.45;29.33;;;;;;;;;;6053283;23;21662;-69
2021/08/18 09:23:00;;;;;;;45.08;29.60;;;;;;;;;;6056982;23;20352;-69
2021/08/18 09:25:39;;;;;;;46.40;29.10;;;;;;;;;;6041477;23;20382;-76
2021/08/18 09:28:06;;;;;;;45.10;29.15;;;;;;;;;;6054655;23;20325;-70
2021/08/18 09:30:35;;;;;;;46.80;27.63;;;;;;;;;;6053720;23;20335;-69
2021/08/18 09:33:12;;;;;;;43.60;26.10;;;;;;;;;;6053975;23;20383;-72
2021/08/18 09:35:41;;;;;;;41.80;25.42;;;;;;;;;;6038255;23;20333;-73
2021/08/18 09:38:22;;;;;;;41.35;24.83;;;;;;;;;;5994162;23;20086;-73
2021/08/18 09:40:54;;;;;;;42.38;24.42;;;;;;;;;;6035256;23;20022;-77
2021/08/18 09:43:30;;;;;;;43.58;26.35;;;;;;;;;;6056003;23;20027;-75
2021/08/18 09:46:02;;;;;;;46.22;25.08;;;;;;;;;;6031374;23;20031;-78
2021/08/18 09:48:35;;;;;;;42.15;24.52;;;;;;;;;;6030883;23;20015;-80
2021/08/18 09:51:04;;;;;;;37.47;22.60;;;;;;;;;;6056698;23;20532;-72
2021/08/18 09:53:40;;;;;;;34.85;23.02;;;;;;;;;;6041036;23;20498;-81
2021/08/18 09:56:17;;;;;;;29.58;20.25;;;;;;;;;;6052006;23;20029;-76
2021/08/18 09:58:57;;;;;;;33.63;21.48;;;;;;;;;;6049898;23;20018;-76
2021/08/18 10:01:25;;;;;;;29.77;19.80;;;;;;;;;;6010609;23;20018;-79
2021/08/18 10:03:53;;;;;;;;;;;;;;;;;;6043386;23;21023;-76
2021/08/18 10:06:21;;;;;;;26.90;18.55;;;;;;;;;;6026887;23;19914;-73
2021/08/18 10:08:53;;;;;;;27.55;18.50;;;;;;;;;;6053909;23;20101;-74
2021/08/18 10:11:20;;;;;;;25.52;18.00;;;;;;;;;;6056328;23;20463;-74
2021/08/18 10:13:48;;;;;;;28.00;19.98;;;;;;;;;;6058849;23;20356;-73
2021/08/18 10:16:16;;;;;;;26.67;18.95;;;;;;;;;;6047787;23;20019;-73
2021/08/18 10:18:55;;;;;;;25.33;17.75;;;;;;;;;;6052890;23;20039;-73
2021/08/18 10:21:28;;;;;;;24.80;16.08;;;;;;;;;;6050392;23;20015;-73
2021/08/18 10:24:05;;;;;;;27.23;18.42;;;;;;;;;;6044682;23;20066;-76
2021/08/18 10:26:49;;;;;;;24.40;16.92;;;;;;;;;;6032546;23;20035;-74
2021/08/18 10:29:31;;;;;;;21.45;15.75;;;;;;;;;;6006542;23;20022;-74
2021/08/18 10:32:10;;;;;;;24.83;17.33;;;;;;;;;;6049020;23;20025;-77
2021/08/18 10:34:51;;;;;;;24.60;15.40;;;;;;;;;;6024033;23;20463;-75
2021/08/18 10:37:24;;;;;;;21.33;14.45;;;;;;;;;;5983452;23;20467;-77
2021/08/18 10:39:54;;;;;;;22.35;14.15;;;;;;;;;;6055226;23;20007;-75
2021/08/18 10:42:42;;;;;;;20.30;13.85;;;;;;;;;;6032027;23;20014;-76
2021/08/18 10:45:20;;;;;;;19.40;11.60;;;;;;;;;;5977626;23;20614;-77
2021/08/18 10:47:51;;;;;;;19.00;12.30;;;;;;;;;;6065938;23;20021;-76
2021/08/18 10:50:24;;;;;;;16.38;12.02;;;;;;;;;;6055097;23;20018;-76
2021/08/18 10:52:55;;;;;;;18.40;12.07;;;;;;;;;;6053295;23;20023;-77
2021/08/18 10:55:31;;;;;;;18.05;12.27;;;;;;;;;;6049669;23;20452;-75
2021/08/18 10:58:07;;;;;;;16.02;11.40;;;;;;;;;;6020549;23;20018;-75
2021/08/18 11:00:40;;;;;;;;;;;;;;;;;;6038273;23;20015;-75
2021/08/18 11:03:37;;;;;;;19.48;14.07;;;;;;;;;;6036493;23;19920;-76
2021/08/18 11:06:10;;;;;;;21.63;15.82;;;;;;;;;;6040172;23;20109;-78
2021/08/18 11:08:40;;;;;;;23.92;17.42;;;;;;;;;;6041174;23;20023;-76
2021/08/18 11:11:07;;;;;;;21.55;16.50;;;;;;;;;;6020817;23;20025;-75
2021/08/18 11:13:40;;;;;;;21.60;17.08;;;;;;;;;;6013832;23;20015;-76
2021/08/18 11:16:27;;;;;;;22.25;16.85;;;;;;;;;;6005353;23;20018;-74
2021/08/18 11:19:08;;;;;;;21.65;15.80;;;;;;;;;;5981780;23;20018;-75
2021/08/18 11:21:40;;;;;;;26.85;16.52;;;;;;;;;;6011038;23;20017;-75
2021/08/18 11:24:19;;;;;;;20.90;16.08;;;;;;;;;;5888511;23;20035;-80
2021/08/18 11:26:49;;;;;;;21.58;14.98;;;;;;;;;;5968063;23;20236;-77
2021/08/18 11:29:23;;;;;;;23.20;16.70;;;;;;;;;;6029165;23;20046;-75
2021/08/18 11:31:57;;;;;;;24.13;17.05;;;;;;;;;;6045428;23;20091;-77
2021/08/18 11:34:28;;;;;;;24.50;17.35;;;;;;;;;;6018326;23;20010;-74
2021/08/18 11:37:04;;;;;;;24.08;16.95;;;;;;;;;;6051772;23;20019;-82
2021/08/18 11:39:37;;;;;;;27.08;19.58;;;;;;;;;;6052560;23;20015;-76
2021/08/18 11:42:12;;;;;;;22.40;17.35;;;;;;;;;;6045012;23;20025;-77
2021/08/18 11:44:42;;;;;;;25.70;17.75;;;;;;;;;;6049413;23;20046;-76
2021/08/18 11:47:15;;;;;;;26.02;19.27;;;;;;;;;;6025532;23;20090;-76
2021/08/18 11:49:44;;;;;;;26.38;18.65;;;;;;;;;;6025927;23;20018;-80
2021/08/18 11:52:16;;;;;;;25.60;17.27;;;;;;;;;;6051195;23;20077;-77
2021/08/18 11:55:02;;;;;;;23.33;17.30;;;;;;;;;;6050209;23;20015;-77
2021/08/18 11:57:32;;;;;;;23.73;18.63;;;;;;;;;;6034861;23;20380;-76
2021/08/18 12:00:04;;;;;;;23.23;16.38;;;;;;;;;;6074871;23;20107;-76
2021/08/18 12:02:36;;;;;;;23.38;17.25;;;;;;;;;;6052626;23;20023;-76
2021/08/18 12:05:06;;;;;;;23.35;16.40;;;;;;;;;;6029673;23;20042;-76
2021/08/18 12:07:36;;;;;;;20.17;16.15;;;;;;;;;;6065394;23;20485;-75
2021/08/18 12:10:26;;;;;;;22.38;16.52;;;;;;;;;;6039755;23;20018;-81
2021/08/18 12:13:04;;;;;;;24.38;16.48;;;;;;;;;;6052382;23;20018;-80
2021/08/18 12:15:34;;;;;;;23.35;17.60;;;;;;;;;;6027440;23;20015;-76
2021/08/18 12:18:01;;;;;;;25.25;17.05;;;;;;;;;;6054377;23;20019;-76
2021/08/18 12:20:33;;;;;;;25.05;17.48;;;;;;;;;;6052180;23;20015;-77
2021/08/18 12:23:02;;;;;;;21.65;15.90;;;;;;;;;;6052074;23;20088;-78
2021/08/18 12:25:32;;;;;;;25.13;15.70;;;;;;;;;;6029869;23;20023;-77
2021/08/18 12:28:19;;;;;;;21.05;16.05;;;;;;;;;;6054929;23;20097;-79
2021/08/18 12:31:05;;;;;;;20.83;16.10;;;;;;;;;;6049204;23;20383;-76
2021/08/18 12:33:32;;;;;;;23.08;16.13;;;;;;;;;;6049450;23;20038;-77
2021/08/18 12:36:09;;;;;;;19.88;15.35;;;;;;;;;;6044919;23;20014;-77
2021/08/18 12:38:36;;;;;;;19.83;14.95;;;;;;;;;;6029275;23;20015;-77
2021/08/18 12:41:05;;;;;;;21.20;15.18;;;;;;;;;;6041885;23;20360;-76
2021/08/18 12:43:32;;;;;;;16.33;12.60;;;;;;;;;;6053075;23;20089;-75
2021/08/18 12:46:00;;;;;;;17.45;12.30;;;;;;;;;;6049562;23;20356;-76
2021/08/18 12:48:29;;;;;;;20.17;13.95;;;;;;;;;;6015884;23;20690;-84
2021/08/18 12:51:04;;;;;;;15.63;11.98;;;;;;;;;;6067162;23;20027;-76
2021/08/18 12:53:31;;;;;;;15.70;11.63;;;;;;;;;;6027556;23;20691;-75
2021/08/18 12:55:58;;;;;;;15.35;12.07;;;;;;;;;;6042273;23;20015;-77
2021/08/18 12:58:25;;;;;;;16.08;11.93;;;;;;;;;;6040556;23;20375;-77
2021/08/18 13:00:52;;;;;;;17.08;13.02;;;;;;;;;;6048020;23;20030;-76
2021/08/18 13:03:19;;;;;;;19.00;12.10;;;;;;;;;;6060812;23;20102;-78
2021/08/18 13:05:46;;;;;;;16.85;12.73;;;;;;;;;;6053128;23;20019;-77
2021/08/18 13:08:16;;;;;;;17.45;12.18;;;;;;;;;;6040427;23;20026;-75
2021/08/18 13:10:43;;;;;;;16.42;11.13;;;;;;;;;;6053347;23;20351;-82
2021/08/18 13:13:11;;;;;;;16.77;11.63;;;;;;;;;;6051151;23;20019;-77
2021/08/18 13:15:38;;;;;;;15.10;10.77;;;;;;;;;;6058416;23;20089;-76
2021/08/18 13:18:05;;;;;;;15.23;11.35;;;;;;;;;;6042190;23;20403;-76
2021/08/18 13:20:33;;;;;;;15.00;10.25;;;;;;;;;;6048279;23;20026;-79
2021/08/18 13:23:00;;;;;;;16.70;10.85;;;;;;;;;;6053321;23;20015;-76
2021/08/18 13:25:27;;;;;;;14.82;11.10;;;;;;;;;;6025593;23;20436;-76
2021/08/18 13:27:54;;;;;;;13.60;10.57;;;;;;;;;;6054094;23;20526;-79
2021/08/18 13:30:23;;;;;;;14.70;10.73;;;;;;;;;;6049494;23;20026;-75
2021/08/18 13:32:51;;;;;;;13.75;11.32;;;;;;;;;;6034544;23;20011;-77
2021/08/18 13:35:18;;;;;;;16.77;11.38;;;;;;;;;;6014906;23;20471;-77
2021/08/18 13:37:45;;;;;;;16.58;13.25;;;;;;;;;;6052879;23;20356;-76
2021/08/18 13:40:15;;;;;;;19.30;13.13;;;;;;;;;;6052812;23;20042;-78
2021/08/18 13:42:42;;;;;;;18.17;13.25;;;;;;;;;;6051003;23;20019;-75
2021/08/18 13:45:09;;;;;;;15.13;11.25;;;;;;;;;;6043744;23;20082;-76
2021/08/18 13:47:37;;;;;;;23.13;12.68;;;;;;;;;;6050614;23;20021;-82
2021/08/18 13:50:07;;;;;;;16.98;13.73;;;;;;;;;;6052888;23;20050;-81
2021/08/18 13:52:34;;;;;;;18.70;13.13;;;;;;;;;;6051501;23;20515;-77
2021/08/18 13:55:04;;;;;;;16.70;11.93;;;;;;;;;;6032788;23;20102;-78
2021/08/18 13:57:33;;;;;;;14.82;11.77;;;;;;;;;;6047891;23;20029;-76
2021/08/18 14:00:01;;;;;;;19.75;12.68;;;;;;;;;;6038657;23;20023;-75
2021/08/18 14:02:28;;;;;;;20.15;12.10;;;;;;;;;;6037756;23;20109;-75
2021/08/18 14:04:58;;;;;;;18.70;12.60;;;;;;;;;;6070519;23;20055;-77
2021/08/18 14:07:25;;;;;;;16.27;12.77;;;;;;;;;;6041385;23;20010;-77
2021/08/18 14:09:52;;;;;;;17.33;12.27;;;;;;;;;;6028486;23;20413;-81
2021/08/18 14:12:19;;;;;;;16.67;12.25;;;;;;;;;;6034657;23;20018;-75
2021/08/18 14:14:47;;;;;;;17.58;13.07;;;;;;;;;;6073979;23;20025;-76
2021/08/18 14:17:16;;;;;;;18.67;12.27;;;;;;;;;;6047032;23;20026;-78
2021/08/18 14:19:43;;;;;;;13.70;10.90;;;;;;;;;;6041430;23;20065;-77
2021/08/18 14:22:12;;;;;;;15.05;11.25;;;;;;;;;;6062204;23;20015;-82
2021/08/18 14:24:38;;;;;;;;;;;;;;;;;;6052198;23;20049;-79
2021/08/18 14:27:06;;;;;;;15.38;11.02;;;;;;;;;;6050444;23;19944;-76
2021/08/18 14:29:33;;;;;;;17.13;12.13;;;;;;;;;;6021070;23;20014;-76
2021/08/18 14:32:02;;;;;;;16.17;11.35;;;;;;;;;;6015895;23;20018;-82
2021/08/18 14:34:29;;;;;;;17.83;11.73;;;;;;;;;;5990222;23;20021;-80